Time;durP1;ratioP1;P1;durP2;ratioP2;P2;SDS_P1;SDS_P2;PMS_P1;PMS_P2;Temp;Humidity;BMP_temperature;BMP_pressure;BME280_temperature;BME280_humidity;BME280_pressure;Samples;Min_cycle;Max_cycle;Signal;HPM_P1;HPM_P2
2021/08/23 00:00:30;;;;;;;3.58;2.08;;;17.60;95.90;;;;;;5033605;28;20382;-84
2021/08/23 00:02:55;;;;;;;5.07;2.30;;;17.60;96.00;;;;;;5033268;28;20514;-84
2021/08/23 00:05:21;;;;;;;5.10;2.20;;;17.60;96.00;;;;;;5033302;28;20386;-82
2021/08/23 00:07:46;;;;;;;5.18;2.45;;;17.60;96.00;;;;;;5033416;28;20030;-85
2021/08/23 00:10:12;;;;;;;3.65;2.05;;;17.60;96.10;;;;;;5032813;28;20026;-84
2021/08/23 00:12:38;;;;;;;4.65;2.17;;;17.60;96.10;;;;;;5033558;28;20021;-85
2021/08/23 00:15:05;;;;;;;4.10;2.10;;;17.60;96.10;;;;;;5033369;28;20130;-83
2021/08/23 00:17:31;;;;;;;3.88;2.15;;;17.60;96.10;;;;;;5033421;28;20024;-84
2021/08/23 00:19:56;;;;;;;3.78;2.00;;;17.60;96.10;;;;;;5033536;28;20034;-85
2021/08/23 00:22:33;;;;;;;4.18;2.50;;;17.60;96.00;;;;;;5035657;28;20027;-86
2021/08/23 00:25:00;;;;;;;4.82;2.97;;;17.50;96.30;;;;;;5036926;28;20060;-85
2021/08/23 00:27:27;;;;;;;5.40;2.60;;;17.50;96.10;;;;;;5037459;28;20030;-85
2021/08/23 00:29:53;;;;;;;5.05;2.80;;;17.40;96.10;;;;;;5037577;28;20024;-90
2021/08/23 00:32:18;;;;;;;5.75;3.10;;;17.40;96.10;;;;;;5037408;28;20022;-84
2021/08/23 00:34:44;;;;;;;5.70;3.10;;;17.40;96.10;;;;;;5037299;28;20067;-85
2021/08/23 00:37:10;;;;;;;4.30;2.50;;;17.40;96.10;;;;;;5037419;28;20431;-84
2021/08/23 00:39:36;;;;;;;4.93;2.28;;;17.40;96.10;;;;;;5019064;28;20022;-84
2021/08/23 00:42:03;;;;;;;5.40;2.60;;;17.50;96.10;;;;;;5019550;28;20028;-85
2021/08/23 00:44:30;;;;;;;4.90;2.53;;;17.50;96.10;;;;;;5037047;28;20486;-85
2021/08/23 00:46:57;;;;;;;5.07;2.50;;;17.50;96.00;;;;;;5037300;28;20056;-85
2021/08/23 00:49:22;;;;;;;3.47;1.83;;;17.50;96.00;;;;;;5037283;28;20054;-84
2021/08/23 00:51:48;;;;;;;6.82;3.20;;;17.50;96.00;;;;;;5037146;28;20444;-83
2021/08/23 00:54:14;;;;;;;5.57;2.53;;;17.50;96.00;;;;;;5036595;28;20390;-85
2021/08/23 00:56:39;;;;;;;5.90;2.83;;;17.50;96.00;;;;;;5037212;28;20095;-85
2021/08/23 00:59:08;;;;;;;4.50;2.70;;;17.50;96.00;;;;;;5037034;28;20018;-85
2021/08/23 01:01:57;;;;;;;5.18;2.97;;;17.40;96.30;;;;;;5036709;28;20095;-85
2021/08/23 01:04:32;;;;;;;5.40;2.67;;;17.50;96.30;;;;;;4988470;28;20044;-86
2021/08/23 01:07:00;;;;;;;6.00;3.53;;;17.40;96.10;;;;;;5019102;28;20475;-84
2021/08/23 01:09:30;;;;;;;8.23;4.32;;;17.40;96.10;;;;;;5018749;28;20429;-85
2021/08/23 01:11:56;;;;;;;5.95;2.95;;;17.40;96.10;;;;;;5037181;28;20044;-86
2021/08/23 01:14:22;;;;;;;7.25;3.50;;;17.40;96.20;;;;;;5036761;28;20055;-87
2021/08/23 01:16:47;;;;;;;8.80;4.00;;;17.40;96.20;;;;;;5036590;28;20497;-84
2021/08/23 01:19:15;;;;;;;7.45;3.90;;;17.50;96.50;;;;;;5036713;28;20033;-85
2021/08/23 01:21:42;;;;;;;8.30;4.47;;;17.50;96.10;;;;;;5036460;28;20017;-83
2021/08/23 01:24:09;;;;;;;6.43;3.47;;;17.50;96.20;;;;;;5036093;28;20026;-84
2021/08/23 01:26:42;;;;;;;6.57;3.33;;;17.50;96.10;;;;;;5036049;28;20556;-83
2021/08/23 01:29:17;;;;;;;10.23;4.55;;;17.50;96.20;;;;;;5036315;28;20113;-85
2021/08/23 01:32:00;;;;;;;8.27;4.07;;;17.50;96.20;;;;;;5036556;28;20036;-84
2021/08/23 01:34:26;;;;;;;8.25;3.90;;;17.50;96.20;;;;;;5018187;28;20117;-84
2021/08/23 01:36:52;;;;;;;9.10;4.68;;;17.50;96.20;;;;;;5037583;28;20044;-85
2021/08/23 01:39:20;;;;;;;9.68;4.95;;;17.50;96.30;;;;;;5041312;28;20467;-82
2021/08/23 01:41:45;;;;;;;10.35;4.05;;;17.50;96.30;;;;;;5038937;28;20461;-82
2021/08/23 01:44:11;;;;;;;8.32;3.72;;;17.50;96.30;;;;;;5035999;28;20478;-83
2021/08/23 01:46:36;;;;;;;9.98;5.20;;;17.50;96.30;;;;;;5036262;28;20038;-84
2021/08/23 01:49:05;;;;;;;7.55;4.25;;;17.50;96.30;;;;;;5035760;28;20018;-82
2021/08/23 01:51:31;;;;;;;8.13;3.72;;;17.60;96.30;;;;;;5035199;28;20059;-82
2021/08/23 01:53:57;;;;;;;7.18;3.78;;;17.60;96.30;;;;;;5035706;28;20056;-86
2021/08/23 01:56:23;;;;;;;6.47;3.25;;;17.60;96.30;;;;;;5035766;28;20029;-84
2021/08/23 01:58:48;;;;;;;6.80;3.67;;;17.60;96.20;;;;;;5035657;28;20033;-85
2021/08/23 02:01:14;;;;;;;7.72;3.85;;;17.60;96.20;;;;;;5035799;28;20108;-84
2021/08/23 02:03:39;;;;;;;6.38;3.22;;;17.60;96.20;;;;;;5035795;28;20037;-85
2021/08/23 02:06:05;;;;;;;9.85;5.57;;;17.70;96.20;;;;;;5017337;28;20029;-85
2021/08/23 02:08:31;;;;;;;10.52;4.03;;;17.70;96.20;;;;;;5035584;28;20026;-83
2021/08/23 02:10:56;;;;;;;8.43;3.50;;;17.70;96.10;;;;;;5035382;28;20463;-84
2021/08/23 02:13:22;;;;;;;10.93;5.32;;;17.70;96.10;;;;;;5017791;28;20064;-86
2021/08/23 02:15:47;;;;;;;9.02;4.15;;;17.70;96.10;;;;;;5035390;28;20029;-81
2021/08/23 02:18:13;;;;;;;7.20;3.50;;;17.70;96.20;;;;;;5035526;28;20029;-84
2021/08/23 02:20:38;;;;;;;8.50;3.83;;;17.70;96.20;;;;;;5034918;28;20033;-85
2021/08/23 02:23:04;;;;;;;8.10;3.65;;;17.70;96.30;;;;;;5035735;28;20025;-85
2021/08/23 02:25:30;;;;;;;11.13;4.25;;;17.70;96.30;;;;;;5018069;28;20048;-85
2021/08/23 02:27:55;;;;;;;8.38;4.00;;;17.70;96.20;;;;;;5035354;28;20036;-84
2021/08/23 02:30:22;;;;;;;8.13;3.08;;;17.70;96.20;;;;;;5035540;28;20033;-85
2021/08/23 02:32:47;;;;;;;7.93;4.07;;;17.70;96.20;;;;;;5035356;28;20017;-85
2021/08/23 02:35:13;;;;;;;6.88;3.30;;;17.70;96.50;;;;;;5034972;28;20018;-85
2021/08/23 02:37:39;;;;;;;9.77;4.20;;;17.80;96.20;;;;;;5035197;28;20026;-85
2021/08/23 02:40:08;;;;;;;7.35;3.08;;;17.80;96.20;;;;;;5035161;28;20478;-85
2021/08/23 02:42:33;;;;;;;5.80;3.05;;;17.70;96.30;;;;;;5035097;28;20029;-85
2021/08/23 02:44:59;;;;;;;6.80;2.90;;;17.80;96.30;;;;;;5034413;28;20032;-85
2021/08/23 02:47:25;;;;;;;7.00;2.80;;;17.70;96.20;;;;;;5034833;28;20414;-85
2021/08/23 02:49:50;;;;;;;6.53;2.90;;;17.70;96.30;;;;;;5034405;28;20529;-85
2021/08/23 02:52:16;;;;;;;6.55;3.70;;;17.70;96.30;;;;;;5034884;28;20375;-89
2021/08/23 02:54:41;;;;;;;7.13;2.92;;;17.70;96.30;;;;;;5034756;28;20105;-84
2021/08/23 02:57:07;;;;;;;6.85;3.42;;;17.70;96.30;;;;;;5034561;28;20541;-85
2021/08/23 02:59:32;;;;;;;8.13;3.38;;;17.70;96.30;;;;;;5034503;28;20028;-84
2021/08/23 03:01:58;;;;;;;7.03;3.47;;;17.70;96.30;;;;;;5034221;28;20124;-84
2021/08/23 03:04:23;;;;;;;6.63;2.60;;;17.70;96.30;;;;;;5034163;28;20022;-83
2021/08/23 03:06:49;;;;;;;5.78;3.17;;;17.60;96.20;;;;;;5034451;28;20033;-85
2021/08/23 03:09:14;;;;;;;7.00;3.05;;;17.60;96.30;;;;;;5034963;28;20478;-86
2021/08/23 03:11:40;;;;;;;6.30;2.97;;;17.50;96.30;;;;;;5034613;28;20551;-85
2021/08/23 03:14:08;;;;;;;5.10;2.28;;;17.50;96.30;;;;;;5034615;28;20026;-85
2021/08/23 03:16:33;;;;;;;7.20;3.05;;;17.50;96.40;;;;;;5016786;28;20432;-85
2021/08/23 03:18:59;;;;;;;6.07;2.78;;;17.50;96.40;;;;;;5034052;28;20021;-84
2021/08/23 03:21:25;;;;;;;8.43;3.33;;;17.50;96.40;;;;;;5034429;28;20510;-85
2021/08/23 03:23:51;;;;;;;8.05;3.08;;;17.50;96.40;;;;;;5034211;28;20477;-83
2021/08/23 03:26:17;;;;;;;7.57;3.55;;;17.50;96.40;;;;;;5016232;28;20073;-85
2021/08/23 03:28:42;;;;;;;9.65;4.50;;;17.50;96.40;;;;;;5034082;28;20029;-84
2021/08/23 03:31:08;;;;;;;7.32;3.78;;;17.50;96.30;;;;;;5034325;28;20036;-85
2021/08/23 03:33:34;;;;;;;9.27;3.63;;;17.40;96.30;;;;;;5033661;28;20028;-85
2021/08/23 03:36:00;;;;;;;8.88;3.90;;;17.40;96.30;;;;;;5034143;28;20021;-84
2021/08/23 03:38:26;;;;;;;7.25;3.35;;;17.40;96.30;;;;;;5034181;28;20079;-84
2021/08/23 03:40:52;;;;;;;10.90;5.30;;;17.40;96.30;;;;;;5033882;28;20531;-84
2021/08/23 03:43:17;;;;;;;6.18;3.17;;;17.40;96.20;;;;;;5034332;28;20378;-85
2021/08/23 03:45:43;;;;;;;9.38;4.65;;;17.40;96.30;;;;;;5035187;28;20025;-85
2021/08/23 03:48:08;;;;;;;8.48;4.22;;;17.40;96.30;;;;;;5036232;28;20036;-85
2021/08/23 03:50:34;;;;;;;10.07;5.35;;;17.40;96.20;;;;;;5035599;28;20021;-85
2021/08/23 03:52:59;;;;;;;9.68;4.05;;;17.30;96.10;;;;;;5035144;28;20537;-84
2021/08/23 03:55:25;;;;;;;9.82;4.60;;;17.30;96.20;;;;;;5017378;28;20085;-85
2021/08/23 03:57:50;;;;;;;8.55;4.18;;;17.20;96.20;;;;;;5033266;28;20232;-85
2021/08/23 04:00:16;;;;;;;9.23;4.72;;;17.20;96.20;;;;;;5033709;28;20022;-85
2021/08/23 04:02:41;;;;;;;9.23;4.30;;;17.20;96.20;;;;;;5033117;28;20399;-83
2021/08/23 04:05:07;;;;;;;11.07;4.88;;;17.20;96.30;;;;;;5033694;28;20032;-83
2021/08/23 04:07:33;;;;;;;11.35;4.68;;;17.10;96.30;;;;;;5033637;28;20037;-83
2021/08/23 04:09:58;;;;;;;10.32;4.20;;;17.10;96.20;;;;;;5033619;28;20021;-85
2021/08/23 04:12:24;;;;;;;9.02;4.07;;;17.10;96.20;;;;;;5033426;28;20099;-84
2021/08/23 04:14:50;;;;;;;8.35;4.38;;;17.10;96.20;;;;;;5033452;28;20029;-84
2021/08/23 04:17:15;;;;;;;9.25;4.00;;;17.10;96.30;;;;;;5033265;28;20474;-85
2021/08/23 04:19:41;;;;;;;9.85;4.30;;;17.10;96.20;;;;;;5033712;28;20076;-85
2021/08/23 04:22:06;;;;;;;10.10;4.07;;;17.10;96.20;;;;;;5033580;28;20029;-85
2021/08/23 04:24:32;;;;;;;10.23;4.63;;;17.10;96.20;;;;;;5033362;28;20504;-85
2021/08/23 04:26:57;;;;;;;11.13;6.25;;;17.10;96.30;;;;;;5033409;28;20041;-84
2021/08/23 04:29:23;;;;;;;10.45;5.20;;;17.10;96.20;;;;;;5033475;28;20022;-84
2021/08/23 04:31:48;;;;;;;11.93;6.35;;;17.10;96.10;;;;;;5032997;28;20033;-83
2021/08/23 04:34:14;;;;;;;11.55;5.85;;;17.00;96.20;;;;;;5016293;28;20497;-88
2021/08/23 04:36:40;;;;;;;10.68;4.85;;;17.00;96.20;;;;;;5034221;28;20037;-89
2021/08/23 04:39:06;;;;;;;9.10;4.53;;;16.90;96.20;;;;;;5033789;28;20021;-86
2021/08/23 04:41:40;;;;;;;8.32;4.13;;;16.90;96.30;;;;;;5033815;28;20053;-88
2021/08/23 04:44:08;;;;;;;11.07;4.53;;;16.90;96.30;;;;;;5033754;28;20093;-84
2021/08/23 04:46:35;;;;;;;9.32;3.90;;;16.90;96.30;;;;;;5015478;28;20030;-87
2021/08/23 04:49:00;;;;;;;7.68;4.15;;;16.90;96.30;;;;;;5016186;28;20024;-86
2021/08/23 04:51:26;;;;;;;9.00;4.50;;;16.90;96.20;;;;;;5033873;28;20021;-87
2021/08/23 04:53:52;;;;;;;8.30;3.50;;;16.90;96.20;;;;;;5033753;28;20025;-88
2021/08/23 04:56:17;;;;;;;7.18;3.30;;;16.90;96.20;;;;;;5033705;28;20022;-88
2021/08/23 04:58:43;;;;;;;7.82;3.10;;;16.80;96.20;;;;;;5033845;28;20091;-89
2021/08/23 05:01:09;;;;;;;6.80;3.50;;;16.80;96.20;;;;;;5033133;28;20026;-90
2021/08/23 05:03:38;;;;;;;8.68;4.72;;;16.90;96.20;;;;;;5033689;28;20029;-89
2021/08/23 05:06:04;;;;;;;8.00;3.88;;;16.90;96.20;;;;;;5033866;28;20026;-88
2021/08/23 05:08:29;;;;;;;7.15;3.40;;;16.90;96.10;;;;;;5035896;28;20471;-89
2021/08/23 05:10:55;;;;;;;8.52;4.32;;;16.90;96.10;;;;;;5037261;28;20018;-89
2021/08/23 05:13:20;;;;;;;9.38;5.13;;;16.90;96.10;;;;;;5037330;28;20036;-89
2021/08/23 05:15:46;;;;;;;11.00;4.28;;;16.90;96.10;;;;;;5037152;28;20344;-87
2021/08/23 05:18:11;;;;;;;6.13;3.28;;;16.80;96.10;;;;;;5037251;28;20037;-88
2021/08/23 05:20:37;;;;;;;9.38;4.10;;;16.80;96.20;;;;;;5019586;28;20067;-89
2021/08/23 05:23:03;;;;;;;9.90;4.07;;;16.80;96.20;;;;;;5019801;28;20374;-87
2021/08/23 05:25:28;;;;;;;9.43;4.25;;;16.80;96.10;;;;;;5036914;28;20025;-87
2021/08/23 05:27:54;;;;;;;7.32;3.65;;;16.80;96.10;;;;;;5036920;28;20099;-88
2021/08/23 05:30:19;;;;;;;11.15;3.75;;;16.80;96.10;;;;;;5018690;28;20049;-87
2021/08/23 05:32:45;;;;;;;8.07;3.80;;;16.80;96.10;;;;;;5036842;28;20064;-89
2021/08/23 05:35:12;;;;;;;8.43;3.75;;;16.80;96.10;;;;;;5037495;28;20014;-87
2021/08/23 05:37:38;;;;;;;10.05;3.88;;;16.80;96.10;;;;;;5037068;28;20029;-88
2021/08/23 05:40:04;;;;;;;8.45;3.53;;;16.80;96.10;;;;;;5036970;28;20018;-88
2021/08/23 05:42:30;;;;;;;8.07;3.75;;;16.90;96.10;;;;;;5037136;28;20096;-86
2021/08/23 05:44:56;;;;;;;8.07;3.88;;;16.90;96.10;;;;;;5036073;28;20103;-89
2021/08/23 05:47:24;;;;;;;7.07;3.72;;;16.80;96.10;;;;;;5036624;28;20041;-88
2021/08/23 05:49:50;;;;;;;9.75;3.65;;;16.80;96.00;;;;;;5036626;28;20418;-89
2021/08/23 05:52:16;;;;;;;11.48;4.90;;;16.80;96.00;;;;;;5036943;28;20028;-87
2021/08/23 05:54:43;;;;;;;10.38;5.00;;;16.80;96.00;;;;;;5036527;28;20053;-87
2021/08/23 05:57:08;;;;;;;8.18;3.97;;;16.80;96.00;;;;;;5036598;28;20087;-91
2021/08/23 05:59:34;;;;;;;7.32;4.22;;;16.70;96.00;;;;;;5036043;28;20494;-85
2021/08/23 06:01:59;;;;;;;9.43;4.15;;;16.80;96.10;;;;;;5035238;28;20559;-82
2021/08/23 06:04:25;;;;;;;9.98;4.45;;;16.80;96.10;;;;;;5035608;28;20053;-86
2021/08/23 06:06:51;;;;;;;9.63;4.00;;;16.80;96.00;;;;;;5035559;28;20542;-83
2021/08/23 06:09:18;;;;;;;8.20;4.15;;;16.80;96.10;;;;;;5035275;28;20029;-84
2021/08/23 06:11:44;;;;;;;7.85;3.78;;;16.80;96.00;;;;;;5035248;28;20049;-83
2021/08/23 06:14:10;;;;;;;9.73;5.03;;;16.90;96.10;;;;;;5034857;28;20441;-82
2021/08/23 06:16:36;;;;;;;6.88;3.80;;;16.80;96.10;;;;;;5035295;28;20079;-83
2021/08/23 06:19:01;;;;;;;8.00;3.88;;;16.90;96.10;;;;;;5034527;28;20100;-87
2021/08/23 06:21:27;;;;;;;11.15;5.38;;;16.90;96.00;;;;;;5035543;28;20044;-84
2021/08/23 06:23:53;;;;;;;5.72;2.85;;;17.00;96.00;;;;;;5035552;28;20156;-84
2021/08/23 06:26:18;;;;;;;7.25;3.30;;;16.90;96.00;;;;;;5035270;28;20034;-86
2021/08/23 06:28:44;;;;;;;7.25;3.75;;;17.00;96.00;;;;;;5034948;28;20018;-86
2021/08/23 06:31:10;;;;;;;9.23;5.32;;;17.00;96.00;;;;;;5035386;28;20025;-86
2021/08/23 06:33:35;;;;;;;8.02;4.60;;;17.10;96.00;;;;;;5035410;28;20094;-86
2021/08/23 06:36:01;;;;;;;8.63;4.82;;;17.10;95.90;;;;;;5035567;28;20055;-86
2021/08/23 06:38:27;;;;;;;7.35;3.65;;;17.10;95.90;;;;;;5035132;28;20040;-83
2021/08/23 06:40:52;;;;;;;8.90;4.13;;;17.10;95.90;;;;;;5035204;28;20049;-87
2021/08/23 06:43:18;;;;;;;7.57;3.35;;;17.10;95.90;;;;;;5034372;28;20104;-84
2021/08/23 06:45:43;;;;;;;8.38;3.60;;;17.10;96.00;;;;;;5034550;28;20437;-82
2021/08/23 06:48:09;;;;;;;5.80;3.45;;;17.20;96.00;;;;;;5034559;28;20036;-83
2021/08/23 06:50:34;;;;;;;10.27;4.60;;;17.30;96.00;;;;;;5034683;28;20101;-80
2021/08/23 06:53:00;;;;;;;6.57;3.50;;;17.30;95.90;;;;;;5034510;28;20033;-87
2021/08/23 06:55:25;;;;;;;7.82;3.83;;;17.40;96.00;;;;;;5034601;28;20028;-88
2021/08/23 06:57:51;;;;;;;9.23;5.35;;;17.40;95.90;;;;;;5034180;28;20033;-81
2021/08/23 07:00:17;;;;;;;8.15;4.78;;;17.40;95.90;;;;;;5034635;28;20018;-84
2021/08/23 07:02:42;;;;;;;8.45;4.20;;;17.40;95.90;;;;;;5034438;28;20398;-85
2021/08/23 07:05:09;;;;;;;6.32;3.83;;;17.50;96.00;;;;;;5034462;28;20112;-83
2021/08/23 07:07:37;;;;;;;5.80;3.10;;;17.60;96.00;;;;;;5034444;28;20071;-84
2021/08/23 07:10:03;;;;;;;5.93;3.00;;;17.70;95.90;;;;;;5034354;28;20104;-84
2021/08/23 07:12:29;;;;;;;3.83;2.40;;;17.70;95.80;;;;;;5033748;28;20135;-84
2021/08/23 07:14:55;;;;;;;4.60;2.63;;;17.80;95.70;;;;;;5016327;28;20486;-84
2021/08/23 07:17:20;;;;;;;4.40;2.53;;;17.90;95.70;;;;;;5034031;28;20060;-83
2021/08/23 07:19:46;;;;;;;4.75;2.65;;;18.00;95.70;;;;;;5034145;28;20024;-84
2021/08/23 07:22:18;;;;;;;4.90;2.08;;;18.00;95.60;;;;;;5034292;28;20100;-85
2021/08/23 07:24:43;;;;;;;3.35;1.80;;;18.00;95.60;;;;;;5034234;28;20021;-82
2021/08/23 07:27:09;;;;;;;4.93;2.10;;;18.00;95.60;;;;;;5016197;28;20116;-83
2021/08/23 07:29:34;;;;;;;4.20;2.10;;;18.10;95.60;;;;;;5034415;28;20022;-86
2021/08/23 07:32:00;;;;;;;3.33;1.70;;;18.10;95.50;;;;;;5034195;28;20033;-86
2021/08/23 07:34:25;;;;;;;3.00;1.80;;;18.10;95.50;;;;;;5034111;28;20025;-83
2021/08/23 07:36:51;;;;;;;2.78;1.83;;;18.10;95.50;;;;;;5033729;28;20079;-86
2021/08/23 07:39:17;;;;;;;2.97;1.83;;;18.20;95.50;;;;;;5015807;28;20501;-78
2021/08/23 07:41:43;;;;;;;4.10;2.40;;;18.30;95.40;;;;;;5033045;28;20487;-79
2021/08/23 07:44:08;;;;;;;3.67;2.20;;;18.20;95.30;;;;;;5033341;28;20037;-79
2021/08/23 07:46:34;;;;;;;3.38;1.98;;;18.20;95.30;;;;;;5033384;28;20044;-80
2021/08/23 07:48:59;;;;;;;2.55;1.70;;;18.10;95.40;;;;;;5033294;28;20022;-83
2021/08/23 07:51:25;;;;;;;3.28;1.92;;;18.20;95.50;;;;;;5033516;28;20027;-82
2021/08/23 07:53:50;;;;;;;3.38;1.92;;;18.20;95.50;;;;;;5032927;28;20017;-83
2021/08/23 07:56:16;;;;;;;2.95;1.70;;;18.20;95.30;;;;;;5033391;28;20025;-83
2021/08/23 07:58:41;;;;;;;2.38;1.50;;;18.20;95.30;;;;;;5015685;28;20022;-84
2021/08/23 08:01:06;;;;;;;2.47;1.40;;;18.30;95.30;;;;;;5033086;28;20100;-82
2021/08/23 08:03:32;;;;;;;1.73;1.20;;;18.30;95.20;;;;;;5015589;28;20030;-80
2021/08/23 08:05:57;;;;;;;2.33;1.55;;;18.30;95.30;;;;;;5015986;28;20117;-79
2021/08/23 08:08:23;;;;;;;2.95;1.63;;;18.30;95.10;;;;;;5015488;28;20083;-82
2021/08/23 08:10:49;;;;;;;1.20;1.10;;;18.30;95.20;;;;;;5034435;28;20022;-83
2021/08/23 08:13:14;;;;;;;2.40;1.38;;;18.20;95.30;;;;;;5033073;28;20367;-81
2021/08/23 08:15:40;;;;;;;2.60;1.65;;;18.10;95.20;;;;;;5033133;28;20039;-82
2021/08/23 08:18:05;;;;;;;2.20;1.63;;;18.10;95.30;;;;;;5033251;28;20543;-81
2021/08/23 08:20:32;;;;;;;2.95;1.70;;;18.10;95.30;;;;;;5032983;28;20029;-81
2021/08/23 08:22:58;;;;;;;3.03;1.65;;;18.10;95.30;;;;;;5032665;28;20386;-81
2021/08/23 08:25:24;;;;;;;5.07;2.25;;;18.10;95.40;;;;;;5033064;28;20025;-78
2021/08/23 08:27:50;;;;;;;2.97;1.90;;;18.20;95.40;;;;;;5033214;28;20030;-83
2021/08/23 08:30:17;;;;;;;2.03;1.60;;;18.30;95.30;;;;;;5032909;28;20025;-82
2021/08/23 08:32:43;;;;;;;2.10;1.30;;;18.40;95.40;;;;;;5033041;28;20025;-81
2021/08/23 08:35:10;;;;;;;3.92;1.83;;;18.40;95.40;;;;;;5033060;28;20024;-86
2021/08/23 08:37:39;;;;;;;2.03;1.75;;;18.60;95.30;;;;;;5033251;28;20033;-83
2021/08/23 08:40:07;;;;;;;4.85;1.80;;;18.70;95.20;;;;;;5033531;28;20025;-85
2021/08/23 08:42:33;;;;;;;1.75;1.40;;;18.80;95.20;;;;;;5034117;28;20071;-86
2021/08/23 08:44:58;;;;;;;2.92;1.55;;;18.90;95.10;;;;;;5020003;28;20013;-84
2021/08/23 08:47:24;;;;;;;1.70;1.30;;;19.00;95.00;;;;;;5036887;28;20037;-82
2021/08/23 08:49:51;;;;;;;2.45;1.30;;;19.00;94.90;;;;;;5036773;28;20017;-85
2021/08/23 08:52:17;;;;;;;2.30;1.73;;;19.00;94.90;;;;;;5036036;28;20030;-80
2021/08/23 08:54:44;;;;;;;1.80;1.27;;;18.90;95.00;;;;;;5036703;28;20028;-78
2021/08/23 08:57:10;;;;;;;2.25;1.60;;;19.00;95.10;;;;;;5036587;28;20018;-79
2021/08/23 08:59:36;;;;;;;2.30;1.70;;;19.00;95.10;;;;;;5036339;28;20022;-81
2021/08/23 09:02:02;;;;;;;3.40;1.70;;;19.00;95.20;;;;;;5036365;28;20085;-79
2021/08/23 09:04:35;;;;;;;1.52;1.35;;;19.20;95.20;;;;;;5036480;28;20014;-81
2021/08/23 09:07:01;;;;;;;2.42;2.00;;;19.20;95.10;;;;;;5018080;28;20038;-84
2021/08/23 09:09:29;;;;;;;1.50;1.40;;;19.30;95.00;;;;;;5036239;28;20029;-79
2021/08/23 09:11:59;;;;;;;1.42;1.30;;;19.30;95.00;;;;;;5036349;28;20033;-79
2021/08/23 09:14:26;;;;;;;1.48;1.17;;;19.30;95.10;;;;;;5036130;28;20160;-79
2021/08/23 09:16:52;;;;;;;1.40;1.30;;;19.40;95.10;;;;;;5036274;28;20026;-81
2021/08/23 09:19:28;;;;;;;2.70;1.67;;;19.50;95.10;;;;;;5035953;28;20124;-79
2021/08/23 09:21:59;;;;;;;2.63;1.75;;;19.70;94.80;;;;;;5035766;28;20540;-80
2021/08/23 09:24:28;;;;;;;2.28;1.45;;;19.60;94.80;;;;;;5035905;28;20021;-82
2021/08/23 09:27:02;;;;;;;3.47;1.90;;;19.60;94.80;;;;;;5036034;28;20029;-81
2021/08/23 09:29:27;;;;;;;2.10;1.80;;;19.70;94.80;;;;;;5036163;28;20060;-80
2021/08/23 09:31:59;;;;;;;1.73;1.63;;;19.70;94.90;;;;;;5036054;28;20513;-80
2021/08/23 09:34:25;;;;;;;2.13;1.50;;;19.70;94.80;;;;;;5035867;28;20021;-80
2021/08/23 09:36:59;;;;;;;1.95;1.65;;;19.60;94.90;;;;;;5035336;28;20031;-80
2021/08/23 09:39:27;;;;;;;2.20;1.60;;;19.70;94.90;;;;;;5035770;28;20109;-85
2021/08/23 09:42:04;;;;;;;2.55;1.80;;;19.70;95.00;;;;;;5035869;28;20053;-81
2021/08/23 09:44:37;;;;;;;2.38;1.50;;;19.90;95.00;;;;;;5035882;28;20379;-82
2021/08/23 09:47:04;;;;;;;1.80;1.40;;;20.00;94.90;;;;;;5035384;28;20038;-83
2021/08/23 09:49:36;;;;;;;2.83;1.83;;;20.10;94.80;;;;;;5035521;28;20018;-78
2021/08/23 09:52:02;;;;;;;3.50;2.30;;;20.00;94.80;;;;;;5035164;28;20029;-78
2021/08/23 09:54:29;;;;;;;2.35;1.90;;;19.90;94.80;;;;;;5035389;28;20021;-78
2021/08/23 09:56:55;;;;;;;4.78;1.90;;;19.70;95.00;;;;;;5035467;28;20179;-78
2021/08/23 09:59:29;;;;;;;2.97;1.92;;;19.70;95.20;;;;;;5035848;28;20497;-80
2021/08/23 10:02:00;;;;;;;2.25;1.75;;;19.80;95.20;;;;;;5035209;28;20053;-81
2021/08/23 10:04:27;;;;;;;2.08;1.77;;;19.80;95.20;;;;;;5034850;28;20021;-80
2021/08/23 10:06:53;;;;;;;2.03;1.83;;;19.80;95.20;;;;;;5035974;28;20116;-79
2021/08/23 10:09:24;;;;;;;1.70;1.60;;;19.90;95.20;;;;;;5036262;28;20029;-80
2021/08/23 10:11:52;;;;;;;1.95;1.55;;;19.80;95.20;;;;;;5019354;28;20060;-81
2021/08/23 10:14:18;;;;;;;1.90;1.40;;;19.90;95.30;;;;;;5036385;28;20108;-80
2021/08/23 10:16:44;;;;;;;1.85;1.52;;;20.00;95.30;;;;;;5035570;28;20029;-80
2021/08/23 10:19:10;;;;;;;2.65;1.63;;;20.10;95.30;;;;;;5035306;28;20036;-79
2021/08/23 10:21:39;;;;;;;1.63;1.20;;;20.20;95.20;;;;;;5035087;28;20021;-81
2021/08/23 10:24:09;;;;;;;2.50;1.55;;;20.40;95.30;;;;;;5035166;28;20025;-80
2021/08/23 10:26:46;;;;;;;1.63;1.40;;;20.60;95.30;;;;;;5035170;28;20486;-80
2021/08/23 10:29:15;;;;;;;2.05;1.55;;;20.90;95.20;;;;;;5034693;28;20029;-81
2021/08/23 10:31:43;;;;;;;2.60;1.77;;;21.20;95.10;;;;;;5017037;28;20027;-83
2021/08/23 10:34:28;;;;;;;2.58;1.80;;;21.40;94.90;;;;;;5034389;28;20057;-82
2021/08/23 10:36:54;;;;;;;1.63;1.45;;;21.60;94.90;;;;;;5034741;28;20017;-82
2021/08/23 10:39:26;;;;;;;1.83;1.60;;;21.50;94.60;;;;;;5034566;28;20104;-80
2021/08/23 10:41:54;;;;;;;2.05;1.75;;;21.20;94.70;;;;;;5034532;28;20101;-83
2021/08/23 10:44:30;;;;;;;1.73;1.42;;;21.00;94.90;;;;;;5034792;28;20033;-84
2021/08/23 10:47:10;;;;;;;1.35;1.25;;;21.10;95.10;;;;;;5034524;28;20060;-83
2021/08/23 10:49:48;;;;;;;2.05;1.95;;;21.20;95.10;;;;;;5034212;28;20569;-80
2021/08/23 10:52:16;;;;;;;1.80;1.50;;;21.40;94.90;;;;;;5016630;28;20385;-80
2021/08/23 10:54:44;;;;;;;2.92;1.90;;;21.40;94.90;;;;;;5034440;28;20028;-80
2021/08/23 10:57:11;;;;;;;1.80;1.65;;;21.20;94.70;;;;;;5034333;28;20071;-79
2021/08/23 10:59:44;;;;;;;2.72;1.63;;;21.00;95.00;;;;;;5034369;28;20071;-80
2021/08/23 11:02:25;;;;;;;1.88;1.73;;;21.00;95.20;;;;;;5034132;28;20042;-81
2021/08/23 11:04:56;;;;;;;1.67;1.35;;;21.10;95.20;;;;;;5034223;28;20026;-82
2021/08/23 11:07:29;;;;;;;2.10;1.60;;;21.20;95.30;;;;;;5033844;28;20125;-78
2021/08/23 11:10:06;;;;;;;3.10;1.67;;;21.30;95.20;;;;;;5034083;28;20052;-81
2021/08/23 11:12:49;;;;;;;1.33;1.20;;;21.40;95.20;;;;;;5034035;28;20037;-83
2021/08/23 11:15:27;;;;;;;1.50;1.40;;;21.60;95.30;;;;;;5016291;28;20025;-79
2021/08/23 11:18:02;;;;;;;1.98;1.45;;;21.70;95.30;;;;;;5033439;28;20540;-81
2021/08/23 11:20:30;;;;;;;2.28;1.92;;;21.80;95.30;;;;;;5034071;28;20014;-81
2021/08/23 11:23:02;;;;;;;2.08;1.67;;;22.00;95.40;;;;;;5016091;28;20029;-79
2021/08/23 11:25:31;;;;;;;2.55;1.52;;;22.20;95.10;;;;;;5033904;28;20018;-79
2021/08/23 11:27:58;;;;;;;1.80;1.63;;;22.20;95.10;;;;;;5033617;28;20033;-77
2021/08/23 11:30:28;;;;;;;2.95;1.60;;;22.10;94.90;;;;;;5033816;28;20099;-80
2021/08/23 11:32:53;;;;;;;1.65;1.55;;;22.00;95.00;;;;;;5033341;28;20025;-78
2021/08/23 11:35:19;;;;;;;2.30;1.63;;;21.80;95.40;;;;;;5033747;28;20542;-79
2021/08/23 11:37:52;;;;;;;1.50;1.27;;;21.80;95.20;;;;;;5033530;28;20377;-79
2021/08/23 11:40:18;;;;;;;1.88;1.52;;;21.90;95.30;;;;;;5015801;28;20025;-80
2021/08/23 11:42:43;;;;;;;1.50;1.40;;;21.90;95.30;;;;;;5015887;28;20066;-79
2021/08/23 11:45:09;;;;;;;2.90;1.63;;;21.90;95.20;;;;;;5033679;28;20048;-80
2021/08/23 11:47:37;;;;;;;1.20;1.10;;;21.90;95.30;;;;;;5015192;28;20041;-80
2021/08/23 11:50:03;;;;;;;2.17;1.33;;;22.10;95.40;;;;;;5033283;28;20025;-79
2021/08/23 11:52:29;;;;;;;1.63;1.50;;;22.50;95.20;;;;;;5033503;28;20037;-82
2021/08/23 11:54:56;;;;;;;1.95;1.73;;;22.80;94.80;;;;;;5033454;28;20025;-80
2021/08/23 11:57:25;;;;;;;2.05;1.75;;;23.00;94.70;;;;;;5033425;28;20026;-80
2021/08/23 12:00:03;;;;;;;1.77;1.60;;;23.20;94.60;;;;;;5033168;28;20505;-83
2021/08/23 12:02:37;;;;;;;1.85;1.48;;;23.40;94.40;;;;;;5032821;28;20111;-81
2021/08/23 12:05:21;;;;;;;1.63;1.52;;;23.40;94.50;;;;;;5033287;28;20425;-81
2021/08/23 12:07:48;;;;;;;1.60;1.25;;;23.30;94.50;;;;;;5033250;28;20382;-81
2021/08/23 12:10:31;;;;;;;1.42;1.33;;;23.40;94.90;;;;;;5033241;28;20021;-81
2021/08/23 12:13:12;;;;;;;1.38;1.27;;;23.80;94.90;;;;;;5033143;28;20478;-83
2021/08/23 12:15:51;;;;;;;2.35;1.67;;;24.30;94.70;;;;;;5033002;28;20075;-84
2021/08/23 12:18:17;;;;;;;2.08;1.55;;;24.90;94.50;;;;;;5035408;28;20013;-83
2021/08/23 12:20:43;;;;;;;1.40;1.30;;;25.30;94.30;;;;;;5037280;28;20033;-83
2021/08/23 12:23:08;;;;;;;1.70;1.40;;;25.40;94.00;;;;;;5037166;28;20075;-81
2021/08/23 12:25:34;;;;;;;1.02;0.95;;;25.00;93.80;;;;;;5037626;28;20021;-82
2021/08/23 12:27:59;;;;;;;1.30;1.20;;;24.50;94.00;;;;;;5037749;28;20076;-82
2021/08/23 12:30:33;;;;;;;1.05;1.00;;;24.40;94.80;;;;;;5019379;28;20017;-82
2021/08/23 12:32:59;;;;;;;1.38;1.27;;;24.90;94.90;;;;;;5037417;28;20032;-86
2021/08/23 12:35:26;;;;;;;1.30;1.20;;;25.30;94.40;;;;;;5037442;28;20064;-83
2021/08/23 12:37:51;;;;;;;1.33;1.23;;;25.50;94.10;;;;;;5037002;28;20029;-84
2021/08/23 12:40:17;;;;;;;0.77;0.77;;;25.50;94.00;;;;;;5019034;28;20378;-80
2021/08/23 12:42:42;;;;;;;0.77;0.77;;;25.00;93.30;;;;;;5036831;28;20031;-83
2021/08/23 12:45:08;;;;;;;1.40;1.23;;;24.50;94.00;;;;;;5036219;28;20029;-82